Time;durP1;ratioP1;P1;durP2;ratioP2;P2;SDS_P1;SDS_P2;PMS_P1;PMS_P2;Temp;Humidity;BMP_temperature;BMP_pressure;BME280_temperature;BME280_humidity;BME280_pressure;Samples;Min_cycle;Max_cycle;Signal;HPM_P1;HPM_P2
2023/07/16 00:04:37;;;;;;;11.20;3.35;;;;;15.00;100423.00;;;;10098747;29;20200;-72
2023/07/16 00:09:39;;;;;;;10.80;3.55;;;;;14.90;100432.00;;;;10097848;29;20645;-72
2023/07/16 00:14:40;;;;;;;11.60;3.10;;;;;14.90;100432.00;;;;10098111;29;20604;-72
2023/07/16 00:19:41;;;;;;;4.67;2.83;;;;;15.00;100431.00;;;;10098899;29;20560;-79
2023/07/16 00:24:43;;;;;;;13.20;3.05;;;;;15.00;100429.00;;;;10096952;29;20263;-72
2023/07/16 00:29:44;;;;;;;9.57;2.75;;;;;15.00;100433.00;;;;10098779;29;20524;-74
2023/07/16 00:34:46;;;;;;;10.13;3.30;;;;;14.90;100435.00;;;;10097494;29;20204;-72
2023/07/16 00:39:47;;;;;;;8.75;3.15;;;;;14.90;100435.00;;;;10096377;29;20220;-73
2023/07/16 00:44:49;;;;;;;8.68;2.70;;;;;14.80;100436.00;;;;10097013;29;20212;-72
2023/07/16 00:49:50;;;;;;;12.50;3.53;;;;;14.70;100447.00;;;;10102245;29;20290;-72
2023/07/16 00:54:54;;;;;;;10.93;3.88;;;;;14.70;100442.00;;;;10104987;29;20198;-73
2023/07/16 00:59:57;;;;;;;11.43;3.63;;;;;14.70;100441.00;;;;10087727;29;20252;-72
2023/07/16 01:04:59;;;;;;;9.10;3.30;;;;;14.70;100443.00;;;;10104240;29;20555;-74
2023/07/16 01:10:02;;;;;;;8.70;3.60;;;;;14.70;100450.00;;;;10103353;29;20205;-72
2023/07/16 01:15:04;;;;;;;11.55;3.15;;;;;14.70;100446.00;;;;10103824;29;20685;-72
2023/07/16 01:20:08;;;;;;;11.02;3.10;;;;;14.70;100450.00;;;;10102794;29;20267;-75
2023/07/16 01:25:21;;;;;;;8.73;3.30;;;;;14.60;100454.00;;;;10102408;29;20536;-79
2023/07/16 01:30:24;;;;;;;10.57;3.80;;;;;14.60;100449.00;;;;10103547;29;20203;-72
2023/07/16 01:35:26;;;;;;;10.30;3.97;;;;;14.50;100448.00;;;;10102891;29;20287;-72
2023/07/16 01:40:29;;;;;;;14.70;5.03;;;;;14.40;100470.00;;;;10103110;29;20308;-72
2023/07/16 01:45:31;;;;;;;11.73;4.50;;;;;14.30;100476.00;;;;10101481;29;20197;-73
2023/07/16 01:50:33;;;;;;;14.63;4.47;;;;;14.30;100477.00;;;;10102828;29;20211;-73
2023/07/16 01:55:34;;;;;;;11.93;4.77;;;;;14.30;100485.00;;;;10104387;29;20200;-74
2023/07/16 02:00:36;;;;;;;14.60;3.80;;;;;14.30;100482.00;;;;10087018;29;20231;-73
2023/07/16 02:05:37;;;;;;;6.47;3.60;;;;;14.20;100490.00;;;;10102786;29;20248;-74
2023/07/16 02:10:39;;;;;;;12.97;3.90;;;;;14.10;100497.00;;;;10101455;29;20232;-74
2023/07/16 02:15:40;;;;;;;9.10;3.90;;;;;14.00;100496.00;;;;10102994;29;20659;-72
2023/07/16 02:20:43;;;;;;;10.63;3.63;;;;;14.00;100508.00;;;;10085939;29;20219;-76
2023/07/16 02:25:44;;;;;;;11.50;3.83;;;;;13.90;100513.00;;;;10102275;29;20204;-72
2023/07/16 02:30:46;;;;;;;11.00;4.77;;;;;13.90;100508.00;;;;10085014;29;20278;-74
2023/07/16 02:35:54;;;;;;;12.33;4.30;;;;;13.90;100513.00;;;;10101657;29;20558;-73
2023/07/16 02:40:56;;;;;;;10.53;5.40;;;;;13.90;100516.00;;;;10100868;29;20220;-72
2023/07/16 02:45:57;;;;;;;10.67;4.67;;;;;13.90;100526.00;;;;10100519;29;20200;-74
2023/07/16 02:50:58;;;;;;;8.97;4.90;;;;;13.90;100515.00;;;;10101141;29;20540;-74
2023/07/16 02:55:59;;;;;;;19.80;6.07;;;;;13.90;100516.00;;;;10099944;29;20298;-77
2023/07/16 03:01:01;;;;;;;10.27;5.90;;;;;13.90;100521.00;;;;10099494;29;20212;-77
2023/07/16 03:06:03;;;;;;;12.57;6.03;;;;;13.90;100523.00;;;;10100497;29;20204;-74
2023/07/16 03:11:04;;;;;;;9.30;5.80;;;;;13.90;100537.00;;;;10084183;29;20203;-73
2023/07/16 03:16:06;;;;;;;13.03;6.33;;;;;13.90;100531.00;;;;10100015;29;20216;-79
2023/07/16 03:21:07;;;;;;;13.13;6.13;;;;;13.80;100537.00;;;;10100943;29;20714;-74
2023/07/16 03:26:09;;;;;;;14.33;5.97;;;;;13.80;100530.00;;;;10099502;29;20212;-75
2023/07/16 03:31:11;;;;;;;12.33;5.83;;;;;13.70;100546.00;;;;10099957;29;20674;-72
2023/07/16 03:36:17;;;;;;;13.03;5.47;;;;;13.80;100546.00;;;;10097797;29;20204;-72
2023/07/16 03:41:19;;;;;;;12.30;5.73;;;;;13.90;100549.00;;;;10099777;29;20662;-72
2023/07/16 03:46:22;;;;;;;14.70;5.80;;;;;14.00;100558.00;;;;10097870;29;20200;-73
2023/07/16 03:51:23;;;;;;;11.63;5.17;;;;;14.00;100556.00;;;;10097741;29;20287;-72
2023/07/16 03:56:24;;;;;;;9.90;5.67;;;;;14.10;100560.00;;;;10082273;29;20252;-73
2023/07/16 04:01:26;;;;;;;14.30;5.93;;;;;14.10;100569.00;;;;10098499;29;20228;-72
2023/07/16 04:06:27;;;;;;;21.47;6.83;;;;;14.10;100573.00;;;;10100715;29;20658;-76
2023/07/16 04:11:28;;;;;;;15.07;5.93;;;;;14.20;100573.00;;;;10099706;29;20647;-73
2023/07/16 04:16:30;;;;;;;11.23;5.63;;;;;14.30;100566.00;;;;10098900;29;20204;-72
2023/07/16 04:21:31;;;;;;;10.60;5.37;;;;;14.40;100577.00;;;;10098519;29;20267;-74
2023/07/16 04:26:33;;;;;;;14.23;7.07;;;;;14.50;100582.00;;;;10098733;29;20204;-72
2023/07/16 04:31:35;;;;;;;15.90;6.40;;;;;14.70;100577.00;;;;10098363;29;20224;-72
2023/07/16 04:36:36;;;;;;;13.30;6.23;;;;;14.70;100573.00;;;;10098035;29;20571;-73
2023/07/16 04:41:38;;;;;;;12.93;6.30;;;;;14.80;100600.00;;;;10096480;29;20207;-74
2023/07/16 04:46:39;;;;;;;13.90;6.20;;;;;14.90;100599.00;;;;10096692;29;20206;-74
2023/07/16 04:51:40;;;;;;;14.05;6.25;;;;;15.00;100604.00;;;;10097154;29;20199;-72
2023/07/16 04:56:42;;;;;;;16.37;6.93;;;;;15.10;100599.00;;;;10097260;29;20227;-74
2023/07/16 05:01:43;;;;;;;13.33;6.77;;;;;15.20;100608.00;;;;10097297;29;20207;-80
2023/07/16 05:06:45;;;;;;;12.50;7.17;;;;;15.50;100606.00;;;;10096315;29;20239;-72
2023/07/16 05:11:46;;;;;;;17.92;6.38;;;;;15.80;100612.00;;;;10097161;29;20195;-80
2023/07/16 05:16:48;;;;;;;17.13;8.02;;;;;16.10;100612.00;;;;10096280;29;20277;-73
2023/07/16 05:21:49;;;;;;;14.85;7.20;;;;;16.40;100602.00;;;;10095580;29;20207;-73
2023/07/16 05:26:52;;;;;;;15.27;6.72;;;;;16.70;100609.00;;;;10096337;29;20674;-73
2023/07/16 05:31:53;;;;;;;16.60;7.53;;;;;17.00;100618.00;;;;10095202;29;20551;-76
2023/07/16 05:36:55;;;;;;;12.95;7.13;;;;;17.20;100633.00;;;;10101809;29;20223;-73
2023/07/16 05:41:57;;;;;;;17.98;7.53;;;;;17.40;100637.00;;;;10103266;29;20335;-75
2023/07/16 05:46:58;;;;;;;16.85;7.75;;;;;17.90;100631.00;;;;10103254;29;20200;-74
2023/07/16 05:51:59;;;;;;;14.20;7.22;;;;;18.30;100641.00;;;;10102126;29;20208;-74
2023/07/16 05:57:01;;;;;;;12.40;6.80;;;;;18.70;100642.00;;;;10101183;29;20216;-74
2023/07/16 06:02:04;;;;;;;14.63;6.50;;;;;19.00;100653.00;;;;10101323;29;20204;-74
2023/07/16 06:07:06;;;;;;;13.38;7.70;;;;;19.30;100657.00;;;;10101504;29;20200;-74
2023/07/16 06:12:07;;;;;;;12.82;6.43;;;;;19.70;100655.00;;;;10104518;29;20242;-75
2023/07/16 06:17:08;;;;;;;8.65;6.30;;;;;19.90;100668.00;;;;10103036;29;20223;-75
2023/07/16 06:22:10;;;;;;;11.23;6.03;;;;;20.20;100660.00;;;;10101775;29;20525;-78
2023/07/16 06:27:11;;;;;;;14.55;5.97;;;;;20.30;100662.00;;;;10102388;29;20204;-75
2023/07/16 06:32:13;;;;;;;13.95;6.80;;;;;20.50;100657.00;;;;10101848;29;20267;-74
2023/07/16 06:37:14;;;;;;;11.77;6.68;;;;;20.80;100664.00;;;;10101760;29;20272;-74
2023/07/16 06:42:15;;;;;;;16.95;6.90;;;;;21.00;100666.00;;;;10101482;29;20204;-74
2023/07/16 06:47:17;;;;;;;13.15;6.28;;;;;21.20;100658.00;;;;10084015;29;20200;-74
2023/07/16 06:52:22;;;;;;;16.90;7.20;;;;;21.40;100667.00;;;;10084602;29;20621;-75
2023/07/16 06:57:24;;;;;;;12.57;6.60;;;;;21.60;100678.00;;;;10100264;29;20216;-75
2023/07/16 07:02:25;;;;;;;10.07;6.07;;;;;21.80;100678.00;;;;10099780;29;20267;-81
2023/07/16 07:07:26;;;;;;;10.48;6.18;;;;;22.00;100685.00;;;;10100521;29;20200;-74
2023/07/16 07:12:28;;;;;;;10.88;6.55;;;;;22.30;100689.00;;;;10100521;29;20314;-72
2023/07/16 07:17:29;;;;;;;9.98;6.25;;;;;22.60;100693.00;;;;10100080;29;20219;-73
2023/07/16 07:22:31;;;;;;;11.40;6.03;;;;;22.90;100700.00;;;;10099595;29;20612;-77
2023/07/16 07:27:32;;;;;;;13.55;6.55;;;;;23.70;100684.00;;;;10099420;29;20212;-73
2023/07/16 07:32:37;;;;;;;14.65;6.97;;;;;24.30;100704.00;;;;10099532;29;20227;-75
2023/07/16 07:37:38;;;;;;;9.05;5.63;;;;;24.20;100706.00;;;;10099744;29;20223;-73
2023/07/16 07:42:39;;;;;;;9.60;6.03;;;;;24.60;100703.00;;;;10098217;29;20215;-73
2023/07/16 07:47:41;;;;;;;12.40;5.97;;;;;25.00;100702.00;;;;10099019;29;20196;-74
2023/07/16 07:52:43;;;;;;;13.30;6.00;;;;;25.90;100716.00;;;;10099005;29;20208;-80
2023/07/16 07:57:44;;;;;;;14.48;6.40;;;;;25.40;100713.00;;;;10081687;29;20219;-74
2023/07/16 08:02:45;;;;;;;13.05;6.15;;;;;25.20;100714.00;;;;10098580;29;20197;-74
2023/07/16 08:07:47;;;;;;;12.50;6.45;;;;;25.40;100718.00;;;;10098783;29;20215;-80
2023/07/16 08:12:48;;;;;;;9.95;5.82;;;;;25.70;100716.00;;;;10097863;29;20723;-78
2023/07/16 08:17:50;;;;;;;9.27;6.03;;;;;26.40;100718.00;;;;10082087;29;20547;-75
2023/07/16 08:22:51;;;;;;;10.88;6.28;;;;;26.30;100725.00;;;;10098432;29;20681;-73
2023/07/16 08:27:53;;;;;;;10.43;5.93;;;;;26.70;100718.00;;;;10098394;29;20222;-74
2023/07/16 08:32:54;;;;;;;9.27;5.88;;;;;26.90;100732.00;;;;10099444;29;20200;-75
2023/07/16 08:37:55;;;;;;;10.25;6.28;;;;;26.00;100725.00;;;;10098834;29;20208;-80
2023/07/16 08:42:57;;;;;;;11.85;5.82;;;;;25.70;100738.00;;;;10099043;29;20209;-75
2023/07/16 08:47:59;;;;;;;8.52;4.95;;;;;27.40;100731.00;;;;10096893;29;20256;-75
2023/07/16 08:53:01;;;;;;;7.22;4.40;;;;;27.30;100743.00;;;;10098548;29;20208;-75
2023/07/16 08:58:04;;;;;;;8.43;4.80;;;;;25.90;100740.00;;;;10080838;29;20259;-74
2023/07/16 09:03:05;;;;;;;9.85;5.05;;;;;25.20;100752.00;;;;10096743;29;20208;-75
2023/07/16 09:08:06;;;;;;;7.32;5.00;;;;;24.70;100758.00;;;;10098529;29;20279;-75
2023/07/16 09:13:09;;;;;;;7.15;4.65;;;;;24.30;100755.00;;;;10103664;29;20219;-75
2023/07/16 09:18:11;;;;;;;9.65;5.38;;;;;23.90;100758.00;;;;10102940;29;20695;-80
2023/07/16 09:23:16;;;;;;;10.52;5.03;;;;;26.00;100754.00;;;;10104075;29;20279;-75
2023/07/16 09:28:19;;;;;;;9.40;5.10;;;;;26.30;100765.00;;;;10103903;29;20735;-74
2023/07/16 09:33:22;;;;;;;7.85;4.75;;;;;25.60;100755.00;;;;10103765;29;20315;-77
2023/07/16 09:38:24;;;;;;;10.35;5.47;;;;;24.70;100765.00;;;;10102316;29;20516;-73
2023/07/16 09:43:26;;;;;;;10.55;5.47;;;;;24.20;100771.00;;;;10103398;29;20275;-78
2023/07/16 09:48:27;;;;;;;5.57;5.00;;;;;24.00;100780.00;;;;10102596;29;20210;-74
2023/07/16 09:53:32;;;;;;;10.02;5.80;;;;;23.00;100796.00;;;;10102580;29;20224;-79
2023/07/16 09:58:34;;;;;;;10.05;4.88;;;;;23.10;100790.00;;;;10102283;29;20356;-73
2023/07/16 10:03:35;;;;;;;9.90;5.45;;;;;22.80;100799.00;;;;10102374;29;20215;-79
2023/07/16 10:08:37;;;;;;;9.40;5.35;;;;;22.30;100804.00;;;;10101153;29;20204;-73
2023/07/16 10:13:38;;;;;;;8.85;5.10;;;;;21.90;100807.00;;;;10101575;29;20208;-79
2023/07/16 10:18:51;;;;;;;6.55;4.70;;;;;21.80;100818.00;;;;10101334;29;20231;-73
2023/07/16 10:23:59;;;;;;;9.90;4.97;;;;;21.70;100822.00;;;;10100867;29;20197;-74
2023/07/16 10:29:00;;;;;;;8.95;4.65;;;;;21.40;100828.00;;;;10101393;29;20200;-75
2023/07/16 10:34:06;;;;;;;13.20;5.88;;;;;21.00;100846.00;;;;10100421;29;20280;-78
2023/07/16 10:39:07;;;;;;;9.20;4.80;;;;;21.80;100843.00;;;;10100256;29;20694;-75
2023/07/16 10:44:09;;;;;;;12.18;5.70;;;;;23.20;100838.00;;;;10101703;29;20203;-73
2023/07/16 10:49:11;;;;;;;6.85;4.53;;;;;23.60;100855.00;;;;10102219;29;20256;-75
2023/07/16 10:54:12;;;;;;;8.30;4.80;;;;;23.10;100864.00;;;;10101296;29;20210;-74
2023/07/16 10:59:13;;;;;;;7.63;4.90;;;;;23.80;100859.00;;;;10101973;29;20251;-74
2023/07/16 11:04:15;;;;;;;7.70;4.82;;;;;25.70;100858.00;;;;10102054;29;20200;-73
2023/07/16 11:09:16;;;;;;;10.25;4.70;;;;;25.90;100862.00;;;;10100235;29;20263;-74
2023/07/16 11:14:17;;;;;;;6.38;4.18;;;;;25.00;100859.00;;;;10100618;29;20219;-74
2023/07/16 11:19:20;;;;;;;8.38;4.60;;;;;24.70;100868.00;;;;10099476;29;20231;-74
2023/07/16 11:24:21;;;;;;;10.45;4.25;;;;;24.80;100858.00;;;;10100145;29;20559;-79
2023/07/16 11:29:24;;;;;;;10.25;4.93;;;;;24.30;100886.00;;;;10100592;29;20204;-73
2023/07/16 11:34:25;;;;;;;8.00;4.75;;;;;23.20;100878.00;;;;10098553;29;20200;-73
2023/07/16 11:39:29;;;;;;;7.15;3.80;;;;;23.60;100874.00;;;;10099001;29;20259;-74
2023/07/16 11:44:34;;;;;;;8.82;3.83;;;;;24.70;100876.00;;;;10099157;29;20256;-75
2023/07/16 11:49:35;;;;;;;10.32;4.70;;;;;26.40;100883.00;;;;10118705;29;20662;-74
2023/07/16 11:54:37;;;;;;;8.70;4.72;;;;;26.60;100888.00;;;;10125730;29;20721;-74
2023/07/16 11:59:38;;;;;;;5.80;4.30;;;;;27.90;100890.00;;;;10123137;29;20290;-76
2023/07/16 12:04:40;;;;;;;6.97;4.30;;;;;28.10;100890.00;;;;10124714;29;20220;-75
2023/07/16 12:09:41;;;;;;;6.50;4.10;;;;;29.00;100884.00;;;;10124626;29;20214;-76
2023/07/16 12:14:42;;;;;;;5.88;4.10;;;;;29.50;100862.00;;;;10124921;29;20207;-75
2023/07/16 12:19:44;;;;;;;7.82;3.50;;;;;29.70;100867.00;;;;10090977;29;20238;-75
2023/07/16 12:24:46;;;;;;;6.40;3.53;;;;;29.90;100870.00;;;;10086041;29;20196;-75
2023/07/16 12:29:47;;;;;;;7.03;4.15;;;;;30.20;100865.00;;;;10089211;29;20204;-76
2023/07/16 12:34:49;;;;;;;5.35;3.70;;;;;29.50;100869.00;;;;10125106;29;20203;-75
2023/07/16 12:39:50;;;;;;;5.43;3.45;;;;;28.70;100864.00;;;;10137770;29;20713;-76
2023/07/16 12:44:52;;;;;;;5.85;3.75;;;;;26.30;100874.00;;;;10122484;29;20207;-75
2023/07/16 12:49:53;;;;;;;6.53;3.67;;;;;25.20;100874.00;;;;10122397;29;20762;-76
2023/07/16 12:54:55;;;;;;;8.20;4.28;;;;;24.70;100890.00;;;;10102500;29;20211;-74
2023/07/16 12:59:59;;;;;;;7.95;4.00;;;;;25.50;100879.00;;;;10118941;29;20321;-73
2023/07/16 13:05:00;;;;;;;8.60;4.40;;;;;26.10;100879.00;;;;10100282;29;20219;-74
2023/07/16 13:10:02;;;;;;;7.47;3.40;;;;;27.10;100876.00;;;;10114707;29;20242;-74
2023/07/16 13:15:18;;;;;;;6.75;4.10;;;;;28.10;100863.00;;;;10111814;29;20227;-76
2023/07/16 13:20:21;;;;;;;7.65;3.95;;;;;27.90;100875.00;;;;10112166;29;20250;-74
2023/07/16 13:25:22;;;;;;;11.02;3.72;;;;;29.20;100895.00;;;;10112095;29;20207;-77
2023/07/16 13:30:23;;;;;;;4.45;3.08;;;;;29.70;100886.00;;;;10112663;29;20208;-76
2023/07/16 13:35:25;;;;;;;6.57;3.47;;;;;28.60;100900.00;;;;10110684;29;20312;-77
2023/07/16 13:40:27;;;;;;;5.90;3.33;;;;;27.80;100905.00;;;;10093549;29;20216;-76
2023/07/16 13:45:28;;;;;;;4.28;2.63;;;;;26.80;100913.00;;;;10092120;29;20220;-75
2023/07/16 13:50:29;;;;;;;3.78;2.55;;;;;26.60;100917.00;;;;10089062;29;20321;-76
2023/07/16 13:55:31;;;;;;;4.57;2.30;;;;;26.00;100933.00;;;;10112738;29;20581;-79
2023/07/16 14:00:33;;;;;;;3.00;1.70;;;;;25.90;100926.00;;;;10124667;29;20249;-82
2023/07/16 14:05:38;;;;;;;4.82;2.58;;;;;26.60;100925.00;;;;10141601;29;20651;-74
2023/07/16 14:10:39;;;;;;;4.75;2.72;;;;;26.80;100928.00;;;;10140892;29;20602;-74
2023/07/16 14:15:41;;;;;;;4.55;2.70;;;;;27.00;100930.00;;;;10139272;29;20618;-81
2023/07/16 14:20:43;;;;;;;7.05;2.80;;;;;27.30;100927.00;;;;10139542;29;20223;-74
2023/07/16 14:25:44;;;;;;;3.85;2.45;;;;;27.40;100935.00;;;;10139195;29;20230;-77
2023/07/16 14:30:45;;;;;;;4.78;2.85;;;;;27.00;100932.00;;;;10140385;29;20196;-74
2023/07/16 14:35:47;;;;;;;8.10;2.95;;;;;26.80;100928.00;;;;10140149;29;20247;-75
2023/07/16 14:40:50;;;;;;;7.45;3.60;;;;;27.00;100917.00;;;;10139902;29;20242;-74
2023/07/16 14:45:51;;;;;;;7.25;3.75;;;;;26.70;100917.00;;;;10139591;29;20196;-78
2023/07/16 14:50:53;;;;;;;7.88;3.13;;;;;27.80;100907.00;;;;10138636;29;20196;-78
2023/07/16 14:55:54;;;;;;;5.78;2.72;;;;;28.20;100913.00;;;;10139256;29;20207;-76
2023/07/16 15:00:59;;;;;;;4.20;3.00;;;;;27.60;100905.00;;;;10139828;29;20234;-80
2023/07/16 15:06:01;;;;;;;5.20;2.70;;;;;27.50;100904.00;;;;10137560;29;20607;-73
2023/07/16 15:11:02;;;;;;;5.95;3.42;;;;;27.50;100903.00;;;;10139461;29;20250;-73
2023/07/16 15:16:04;;;;;;;3.92;1.58;;;;;27.00;100907.00;;;;10138492;29;20272;-78
2023/07/16 15:21:06;;;;;;;2.47;1.20;;;;;26.70;100905.00;;;;10137834;29;20307;-75
2023/07/16 15:26:10;;;;;;;1.70;0.93;;;;;26.70;100900.00;;;;10138494;29;20681;-74
2023/07/16 15:31:12;;;;;;;1.70;1.02;;;;;27.50;100899.00;;;;10138018;29;20271;-74
2023/07/16 15:36:14;;;;;;;5.40;1.80;;;;;28.50;100881.00;;;;10136916;29;20334;-74
2023/07/16 15:41:19;;;;;;;4.72;2.08;;;;;28.60;100891.00;;;;10138835;29;20231;-74
2023/07/16 15:46:20;;;;;;;3.05;2.13;;;;;28.30;100897.00;;;;10114558;29;20210;-76
2023/07/16 15:51:22;;;;;;;3.95;2.15;;;;;27.60;100898.00;;;;10115785;29;20486;-75
2023/07/16 15:56:23;;;;;;;4.72;2.45;;;;;27.30;100890.00;;;;10106237;29;20906;-72
2023/07/16 16:01:26;;;;;;;3.13;2.42;;;;;27.20;100892.00;;;;10141525;29;20230;-72
2023/07/16 16:06:27;;;;;;;5.30;2.30;;;;;26.80;100897.00;;;;10134493;29;20347;-73
2023/07/16 16:11:29;;;;;;;3.13;2.45;;;;;26.70;100895.00;;;;10107804;29;20726;-73
2023/07/16 16:16:30;;;;;;;5.53;2.63;;;;;25.90;100893.00;;;;10121253;29;20674;-72
2023/07/16 16:21:31;;;;;;;3.50;2.63;;;;;25.40;100892.00;;;;10124225;29;20250;-75
2023/07/16 16:26:33;;;;;;;3.22;2.45;;;;;25.40;100888.00;;;;10126590;29;20672;-73
2023/07/16 16:31:34;;;;;;;4.53;2.45;;;;;25.60;100896.00;;;;10124614;29;20607;-73
2023/07/16 16:36:36;;;;;;;4.38;2.05;;;;;25.00;100898.00;;;;10117207;29;20510;-74
2023/07/16 16:41:37;;;;;;;4.55;1.50;;;;;24.10;100904.00;;;;10148032;29;20674;-76
2023/07/16 16:46:38;;;;;;;2.45;1.38;;;;;22.90;100921.00;;;;10175752;29;20203;-72
2023/07/16 16:51:39;;;;;;;1.42;1.33;;;;;21.90;100918.00;;;;10175711;29;20218;-72
2023/07/16 16:56:43;;;;;;;3.80;1.67;;;;;21.50;100914.00;;;;10146395;29;20674;-73
2023/07/16 17:01:44;;;;;;;2.50;2.00;;;;;21.70;100929.00;;;;10118143;29;20693;-72
2023/07/16 17:06:46;;;;;;;4.20;2.40;;;;;21.90;100933.00;;;;10132307;29;20211;-72
2023/07/16 17:11:47;;;;;;;5.63;2.63;;;;;22.00;100930.00;;;;10133948;29;20199;-76
2023/07/16 17:16:48;;;;;;;6.00;3.13;;;;;22.40;100930.00;;;;10113145;29;20247;-79
2023/07/16 17:21:51;;;;;;;5.10;2.47;;;;;23.40;100928.00;;;;10133058;29;20593;-72
2023/07/16 17:26:52;;;;;;;3.95;2.50;;;;;23.50;100929.00;;;;10119097;29;20208;-74
2023/07/16 17:31:53;;;;;;;2.50;1.70;;;;;23.60;100920.00;;;;10131724;29;20200;-74
2023/07/16 17:36:55;;;;;;;2.03;1.45;;;;;23.80;100924.00;;;;10136947;29;20259;-74
2023/07/16 17:41:56;;;;;;;5.03;1.88;;;;;23.50;100925.00;;;;10124380;29;20292;-74
2023/07/16 17:46:58;;;;;;;3.03;2.22;;;;;23.30;100935.00;;;;10131436;29;20203;-76
2023/07/16 17:51:59;;;;;;;2.65;1.90;;;;;23.00;100928.00;;;;10141299;29;20401;-74
2023/07/16 17:57:01;;;;;;;2.63;1.50;;;;;22.70;100927.00;;;;10138430;29;20199;-74
2023/07/16 18:02:04;;;;;;;3.13;2.05;;;;;22.10;100940.00;;;;10150851;29;20618;-74
2023/07/16 18:07:05;;;;;;;2.38;1.88;;;;;21.60;100934.00;;;;10134641;29;20207;-76
2023/07/16 18:12:06;;;;;;;1.85;1.60;;;;;21.40;100938.00;;;;10130101;29;20283;-76
2023/07/16 18:17:08;;;;;;;2.35;1.60;;;;;21.20;100933.00;;;;10152037;29;20565;-73
2023/07/16 18:22:10;;;;;;;2.92;1.88;;;;;21.10;100925.00;;;;10129071;29;20214;-74
2023/07/16 18:27:32;;;;;;;3.35;2.08;;;;;21.00;100940.00;;;;10166829;29;20282;-74
2023/07/16 18:32:33;;;;;;;4.63;1.80;;;;;21.10;100929.00;;;;10180755;29;20199;-74
2023/07/16 18:37:35;;;;;;;2.97;1.58;;;;;20.90;100942.00;;;;10179774;29;20242;-74
2023/07/16 18:42:36;;;;;;;4.72;1.88;;;;;20.80;100946.00;;;;10176054;29;20334;-76
2023/07/16 18:47:37;;;;;;;5.30;2.10;;;;;20.70;100941.00;;;;10138826;29;20292;-77
2023/07/16 18:52:39;;;;;;;4.70;2.03;;;;;20.60;100950.00;;;;10124170;29;20246;-74
2023/07/16 18:57:42;;;;;;;4.03;1.90;;;;;20.60;100957.00;;;;10134185;29;20222;-74
2023/07/16 19:02:43;;;;;;;4.22;2.03;;;;;20.50;100958.00;;;;10137900;29;20625;-74
2023/07/16 19:07:44;;;;;;;3.63;2.30;;;;;20.30;100955.00;;;;10137792;29;20652;-73
2023/07/16 19:12:46;;;;;;;3.65;2.40;;;;;20.10;100946.00;;;;10138588;29;20310;-73
2023/07/16 19:17:47;;;;;;;4.97;2.50;;;;;19.90;100958.00;;;;10103431;29;20255;-76
2023/07/16 19:22:49;;;;;;;6.03;2.40;;;;;19.80;100959.00;;;;10114634;29;20207;-77
2023/07/16 19:27:50;;;;;;;3.30;1.98;;;;;19.80;100968.00;;;;10122831;29;20548;-77
2023/07/16 19:32:52;;;;;;;3.13;2.45;;;;;19.70;100969.00;;;;10099003;29;20673;-77
2023/07/16 19:37:53;;;;;;;5.68;2.63;;;;;19.60;100980.00;;;;10113028;29;20246;-73
2023/07/16 19:42:55;;;;;;;5.75;2.10;;;;;19.50;100985.00;;;;10135926;29;20199;-74
2023/07/16 19:47:56;;;;;;;4.88;2.30;;;;;19.40;100988.00;;;;10137387;29;20291;-79
2023/07/16 19:52:58;;;;;;;2.92;1.80;;;;;19.30;100991.00;;;;10136814;29;20191;-78
2023/07/16 19:57:59;;;;;;;3.50;2.45;;;;;19.20;100997.00;;;;10136921;29;20215;-72
2023/07/16 20:03:01;;;;;;;3.67;2.22;;;;;19.10;101005.00;;;;10103631;29;20455;-76
2023/07/16 20:08:03;;;;;;;4.93;2.08;;;;;19.00;101003.00;;;;10119430;29;20202;-73
2023/07/16 20:13:04;;;;;;;5.07;2.38;;;;;18.90;101000.00;;;;10129403;29;20256;-74
2023/07/16 20:18:06;;;;;;;4.93;2.53;;;;;18.90;101015.00;;;;10130927;29;20246;-73
2023/07/16 20:23:08;;;;;;;4.88;2.50;;;;;18.80;101024.00;;;;10126520;29;20544;-72
2023/07/16 20:28:15;;;;;;;4.97;2.50;;;;;18.80;101030.00;;;;10114481;29;20359;-72
2023/07/16 20:33:16;;;;;;;5.03;2.60;;;;;18.80;101028.00;;;;10122480;29;20290;-72
2023/07/16 20:38:17;;;;;;;5.20;2.28;;;;;18.80;101031.00;;;;10132468;29;20585;-74
2023/07/16 20:43:19;;;;;;;4.90;2.05;;;;;18.80;101030.00;;;;10118580;29;20282;-72
2023/07/16 20:48:20;;;;;;;5.05;2.30;;;;;18.70;101032.00;;;;10115137;29;20264;-72
2023/07/16 20:53:22;;;;;;;3.47;2.08;;;;;18.70;101040.00;;;;10134169;29;20242;-72
2023/07/16 20:58:24;;;;;;;3.85;2.53;;;;;18.80;101041.00;;;;10120148;29;20260;-77
2023/07/16 21:03:27;;;;;;;4.07;2.25;;;;;18.80;101048.00;;;;10136025;29;20214;-77
2023/07/16 21:08:28;;;;;;;5.07;2.45;;;;;18.70;101050.00;;;;10137618;29;20262;-77
2023/07/16 21:13:30;;;;;;;4.35;2.22;;;;;18.70;101066.00;;;;10174386;29;20381;-74
2023/07/16 21:18:31;;;;;;;4.18;2.28;;;;;18.70;101053.00;;;;10181725;29;20218;-73
2023/07/16 21:23:33;;;;;;;6.20;2.47;;;;;18.70;101054.00;;;;10182203;29;20203;-74
2023/07/16 21:28:34;;;;;;;4.43;2.53;;;;;18.70;101059.00;;;;10180888;29;20211;-74
2023/07/16 21:33:35;;;;;;;6.25;3.05;;;;;18.60;101058.00;;;;10168679;29;20291;-78
2023/07/16 21:38:39;;;;;;;4.47;2.70;;;;;18.60;101055.00;;;;10139774;29;20282;-79
2023/07/16 21:43:40;;;;;;;5.15;3.05;;;;;18.60;101049.00;;;;10108136;29;20239;-73
2023/07/16 21:48:41;;;;;;;6.03;2.60;;;;;18.50;101047.00;;;;10142921;29;20238;-73
2023/07/16 21:53:43;;;;;;;6.30;2.35;;;;;18.50;101019.00;;;;10117539;29;20284;-73
2023/07/16 21:58:44;;;;;;;6.15;2.67;;;;;18.40;101023.00;;;;10102294;29;20224;-75
2023/07/16 22:03:45;;;;;;;6.60;2.80;;;;;18.40;101038.00;;;;10094619;29;20211;-73
2023/07/16 22:08:47;;;;;;;4.90;2.30;;;;;18.30;101045.00;;;;10101984;29;20227;-74
2023/07/16 22:13:48;;;;;;;6.00;2.90;;;;;18.30;101051.00;;;;10114136;29;20856;-74
2023/07/16 22:18:50;;;;;;;4.90;2.63;;;;;18.30;101072.00;;;;10101666;29;20262;-75
2023/07/16 22:23:51;;;;;;;7.38;2.85;;;;;18.10;101070.00;;;;10116949;29;20450;-74
2023/07/16 22:28:53;;;;;;;4.00;2.72;;;;;17.90;101079.00;;;;10122246;29;20228;-74
2023/07/16 22:33:54;;;;;;;5.85;3.00;;;;;17.70;101071.00;;;;10090384;29;20274;-73
2023/07/16 22:38:55;;;;;;;10.32;3.03;;;;;17.60;101078.00;;;;10108088;29;20220;-74
2023/07/16 22:43:57;;;;;;;4.72;2.35;;;;;17.40;101101.00;;;;10100338;29;20203;-75
2023/07/16 22:48:59;;;;;;;6.97;2.63;;;;;17.20;101105.00;;;;10108728;29;20291;-73
2023/07/16 22:54:02;;;;;;;7.20;2.60;;;;;17.10;101093.00;;;;10103218;29;20211;-75
2023/07/16 22:59:03;;;;;;;4.95;2.40;;;;;17.00;101092.00;;;;10108880;29;20272;-75
2023/07/16 23:04:05;;;;;;;7.32;2.72;;;;;16.90;101095.00;;;;10093155;29;20239;-74
2023/07/16 23:09:08;;;;;;;3.60;2.40;;;;;16.90;101096.00;;;;10115866;29;20755;-73
2023/07/16 23:14:10;;;;;;;5.95;3.03;;;;;16.90;101100.00;;;;10096453;29;20238;-76
2023/07/16 23:19:11;;;;;;;5.00;2.78;;;;;16.80;101096.00;;;;10108706;29;20571;-75
2023/07/16 23:24:13;;;;;;;4.82;2.35;;;;;16.80;101113.00;;;;10107720;29;20198;-75
2023/07/16 23:29:14;;;;;;;5.05;2.33;;;;;16.70;101114.00;;;;10129979;29;20486;-74
2023/07/16 23:34:15;;;;;;;4.23;2.00;;;;;16.60;101126.00;;;;10107654;29;20304;-73
2023/07/16 23:39:17;;;;;;;5.72;2.45;;;;;16.50;101143.00;;;;10109266;29;20220;-74
2023/07/16 23:44:18;;;;;;;4.93;2.20;;;;;16.40;101147.00;;;;10116901;29;20845;-74
2023/07/16 23:49:20;;;;;;;7.88;2.70;;;;;16.50;101140.00;;;;10091209;29;20291;-73
2023/07/16 23:54:22;;;;;;;4.57;2.30;;;;;16.60;101136.00;;;;10113991;29;20203;-76
2023/07/16 23:59:24;;;;;;;4.90;2.00;;;;;16.60;101127.00;;;;10090574;29;20225;-75
